sensor_id;sensor_type;location;lat;lon;timestamp;P1;durP1;ratioP1;P2;durP2;ratioP2
32138;SDS011;18644;48.700;9.210;2023-05-23T00:02:21;14.45;;;8.70;;
32138;SDS011;18644;48.700;9.210;2023-05-23T00:04:48;13.13;;;9.25;;
32138;SDS011;18644;48.700;9.210;2023-05-23T00:07:16;11.57;;;8.88;;
32138;SDS011;18644;48.700;9.210;2023-05-23T00:09:43;20.00;;;9.43;;
32138;SDS011;18644;48.700;9.210;2023-05-23T00:12:10;15.40;;;9.52;;
32138;SDS011;18644;48.700;9.210;2023-05-23T00:14:37;14.63;;;10.27;;
32138;SDS011;18644;48.700;9.210;2023-05-23T00:17:05;12.45;;;8.43;;
32138;SDS011;18644;48.700;9.210;2023-05-23T00:19:34;14.40;;;10.35;;
32138;SDS011;18644;48.700;9.210;2023-05-23T00:22:01;20.70;;;11.32;;
32138;SDS011;18644;48.700;9.210;2023-05-23T00:24:28;15.82;;;10.43;;
32138;SDS011;18644;48.700;9.210;2023-05-23T00:26:55;20.73;;;12.73;;
32138;SDS011;18644;48.700;9.210;2023-05-23T00:29:22;18.77;;;12.63;;
32138;SDS011;18644;48.700;9.210;2023-05-23T00:31:49;21.42;;;13.38;;
32138;SDS011;18644;48.700;9.210;2023-05-23T00:34:18;22.02;;;13.85;;
32138;SDS011;18644;48.700;9.210;2023-05-23T00:36:44;21.55;;;13.98;;
32138;SDS011;18644;48.700;9.210;2023-05-23T00:39:14;20.60;;;12.85;;
32138;SDS011;18644;48.700;9.210;2023-05-23T00:41:44;22.25;;;13.85;;
32138;SDS011;18644;48.700;9.210;2023-05-23T00:44:12;25.63;;;14.90;;
32138;SDS011;18644;48.700;9.210;2023-05-23T00:46:39;23.33;;;14.25;;
32138;SDS011;18644;48.700;9.210;2023-05-23T00:49:08;25.05;;;15.35;;
32138;SDS011;18644;48.700;9.210;2023-05-23T00:51:37;23.48;;;14.98;;
32138;SDS011;18644;48.700;9.210;2023-05-23T00:54:06;23.40;;;15.05;;
32138;SDS011;18644;48.700;9.210;2023-05-23T00:56:33;21.73;;;15.43;;
32138;SDS011;18644;48.700;9.210;2023-05-23T00:59:00;22.60;;;14.10;;
32138;SDS011;18644;48.700;9.210;2023-05-23T01:01:27;20.67;;;14.23;;
32138;SDS011;18644;48.700;9.210;2023-05-23T01:03:54;22.02;;;13.73;;
32138;SDS011;18644;48.700;9.210;2023-05-23T01:06:23;23.05;;;13.80;;
32138;SDS011;18644;48.700;9.210;2023-05-23T01:08:51;25.45;;;16.30;;
32138;SDS011;18644;48.700;9.210;2023-05-23T01:11:19;23.45;;;14.90;;
32138;SDS011;18644;48.700;9.210;2023-05-23T01:13:55;24.70;;;15.95;;
32138;SDS011;18644;48.700;9.210;2023-05-23T01:16:28;28.08;;;16.77;;
32138;SDS011;18644;48.700;9.210;2023-05-23T01:19:03;24.58;;;16.30;;
32138;SDS011;18644;48.700;9.210;2023-05-23T01:22:10;24.60;;;15.07;;
32138;SDS011;18644;48.700;9.210;2023-05-23T01:25:13;23.08;;;14.52;;
32138;SDS011;18644;48.700;9.210;2023-05-23T01:27:56;24.45;;;15.52;;
32138;SDS011;18644;48.700;9.210;2023-05-23T01:30:26;25.90;;;16.63;;
32138;SDS011;18644;48.700;9.210;2023-05-23T01:32:57;25.17;;;16.08;;
32138;SDS011;18644;48.700;9.210;2023-05-23T01:35:25;24.02;;;15.10;;
32138;SDS011;18644;48.700;9.210;2023-05-23T01:37:53;24.70;;;15.82;;
32138;SDS011;18644;48.700;9.210;2023-05-23T01:40:21;28.70;;;15.48;;
32138;SDS011;18644;48.700;9.210;2023-05-23T01:42:48;26.25;;;17.88;;
32138;SDS011;18644;48.700;9.210;2023-05-23T01:45:16;27.92;;;17.13;;
32138;SDS011;18644;48.700;9.210;2023-05-23T01:47:44;27.60;;;15.70;;
32138;SDS011;18644;48.700;9.210;2023-05-23T01:50:13;26.10;;;16.42;;
32138;SDS011;18644;48.700;9.210;2023-05-23T01:52:40;26.70;;;16.00;;
32138;SDS011;18644;48.700;9.210;2023-05-23T01:55:07;26.52;;;16.80;;
32138;SDS011;18644;48.700;9.210;2023-05-23T01:57:36;27.48;;;18.83;;
32138;SDS011;18644;48.700;9.210;2023-05-23T02:00:04;32.15;;;19.23;;
32138;SDS011;18644;48.700;9.210;2023-05-23T02:02:36;32.10;;;18.77;;
32138;SDS011;18644;48.700;9.210;2023-05-23T02:05:03;28.25;;;18.58;;
32138;SDS011;18644;48.700;9.210;2023-05-23T02:07:31;29.98;;;18.98;;
32138;SDS011;18644;48.700;9.210;2023-05-23T02:09:57;32.70;;;19.15;;
32138;SDS011;18644;48.700;9.210;2023-05-23T02:12:24;33.67;;;19.45;;
32138;SDS011;18644;48.700;9.210;2023-05-23T02:14:52;29.85;;;18.85;;
32138;SDS011;18644;48.700;9.210;2023-05-23T02:17:19;34.42;;;20.05;;
32138;SDS011;18644;48.700;9.210;2023-05-23T02:19:49;34.45;;;21.75;;
32138;SDS011;18644;48.700;9.210;2023-05-23T02:22:16;31.27;;;20.13;;
32138;SDS011;18644;48.700;9.210;2023-05-23T02:24:43;35.45;;;18.25;;
32138;SDS011;18644;48.700;9.210;2023-05-23T02:27:10;31.95;;;20.65;;
32138;SDS011;18644;48.700;9.210;2023-05-23T02:29:36;30.90;;;20.48;;
32138;SDS011;18644;48.700;9.210;2023-05-23T02:32:03;32.13;;;20.40;;
32138;SDS011;18644;48.700;9.210;2023-05-23T02:34:31;31.77;;;19.55;;
32138;SDS011;18644;48.700;9.210;2023-05-23T02:36:59;27.90;;;18.63;;
32138;SDS011;18644;48.700;9.210;2023-05-23T02:39:26;30.95;;;19.88;;
32138;SDS011;18644;48.700;9.210;2023-05-23T02:41:53;36.97;;;20.30;;
32138;SDS011;18644;48.700;9.210;2023-05-23T02:44:20;30.77;;;20.05;;
32138;SDS011;18644;48.700;9.210;2023-05-23T02:46:47;35.58;;;20.85;;
32138;SDS011;18644;48.700;9.210;2023-05-23T02:49:14;32.58;;;21.35;;
32138;SDS011;18644;48.700;9.210;2023-05-23T02:51:40;39.60;;;22.58;;
32138;SDS011;18644;48.700;9.210;2023-05-23T02:54:09;34.67;;;20.20;;
32138;SDS011;18644;48.700;9.210;2023-05-23T02:56:35;31.08;;;19.23;;
32138;SDS011;18644;48.700;9.210;2023-05-23T02:59:02;32.78;;;21.02;;
32138;SDS011;18644;48.700;9.210;2023-05-23T03:01:29;32.47;;;20.60;;
32138;SDS011;18644;48.700;9.210;2023-05-23T03:03:56;34.17;;;20.60;;
32138;SDS011;18644;48.700;9.210;2023-05-23T03:06:23;30.67;;;20.30;;
32138;SDS011;18644;48.700;9.210;2023-05-23T03:08:51;38.65;;;22.55;;
32138;SDS011;18644;48.700;9.210;2023-05-23T03:11:19;34.03;;;21.17;;
32138;SDS011;18644;48.700;9.210;2023-05-23T03:13:46;37.47;;;23.52;;
32138;SDS011;18644;48.700;9.210;2023-05-23T03:16:13;34.92;;;22.95;;
32138;SDS011;18644;48.700;9.210;2023-05-23T03:18:40;37.63;;;23.55;;
32138;SDS011;18644;48.700;9.210;2023-05-23T03:21:07;38.65;;;24.10;;
32138;SDS011;18644;48.700;9.210;2023-05-23T03:23:34;37.38;;;22.60;;
32138;SDS011;18644;48.700;9.210;2023-05-23T03:26:01;35.63;;;22.35;;
32138;SDS011;18644;48.700;9.210;2023-05-23T03:28:31;40.63;;;24.35;;
32138;SDS011;18644;48.700;9.210;2023-05-23T03:30:58;38.45;;;25.63;;
32138;SDS011;18644;48.700;9.210;2023-05-23T03:33:25;35.17;;;22.77;;
32138;SDS011;18644;48.700;9.210;2023-05-23T03:35:52;39.72;;;24.88;;
32138;SDS011;18644;48.700;9.210;2023-05-23T03:38:20;42.58;;;24.48;;
32138;SDS011;18644;48.700;9.210;2023-05-23T03:40:47;37.33;;;23.75;;
32138;SDS011;18644;48.700;9.210;2023-05-23T03:43:14;37.13;;;24.67;;
32138;SDS011;18644;48.700;9.210;2023-05-23T03:45:42;39.13;;;24.55;;
32138;SDS011;18644;48.700;9.210;2023-05-23T03:48:09;39.97;;;24.38;;
32138;SDS011;18644;48.700;9.210;2023-05-23T03:50:36;34.75;;;24.10;;
32138;SDS011;18644;48.700;9.210;2023-05-23T03:53:03;39.58;;;25.20;;
32138;SDS011;18644;48.700;9.210;2023-05-23T03:55:30;35.15;;;22.48;;
32138;SDS011;18644;48.700;9.210;2023-05-23T03:57:57;35.90;;;23.63;;
32138;SDS011;18644;48.700;9.210;2023-05-23T04:00:24;34.67;;;23.40;;
32138;SDS011;18644;48.700;9.210;2023-05-23T04:02:52;34.80;;;23.77;;
32138;SDS011;18644;48.700;9.210;2023-05-23T04:05:19;37.65;;;24.60;;
32138;SDS011;18644;48.700;9.210;2023-05-23T04:07:46;34.63;;;23.58;;
32138;SDS011;18644;48.700;9.210;2023-05-23T04:10:14;39.97;;;25.17;;
32138;SDS011;18644;48.700;9.210;2023-05-23T04:12:41;34.55;;;22.60;;
32138;SDS011;18644;48.700;9.210;2023-05-23T04:15:08;29.35;;;20.58;;
32138;SDS011;18644;48.700;9.210;2023-05-23T04:17:35;33.90;;;22.77;;
32138;SDS011;18644;48.700;9.210;2023-05-23T04:20:04;35.25;;;22.15;;
32138;SDS011;18644;48.700;9.210;2023-05-23T04:22:33;30.38;;;21.52;;
32138;SDS011;18644;48.700;9.210;2023-05-23T04:25:00;32.25;;;21.58;;
32138;SDS011;18644;48.700;9.210;2023-05-23T04:27:27;30.55;;;21.33;;
32138;SDS011;18644;48.700;9.210;2023-05-23T04:29:54;32.25;;;21.17;;
32138;SDS011;18644;48.700;9.210;2023-05-23T04:32:22;33.58;;;21.15;;
32138;SDS011;18644;48.700;9.210;2023-05-23T04:34:50;29.85;;;21.42;;
32138;SDS011;18644;48.700;9.210;2023-05-23T04:37:18;31.20;;;21.17;;
32138;SDS011;18644;48.700;9.210;2023-05-23T04:39:49;28.48;;;20.75;;
32138;SDS011;18644;48.700;9.210;2023-05-23T04:42:17;32.28;;;22.20;;
32138;SDS011;18644;48.700;9.210;2023-05-23T04:44:49;29.58;;;20.60;;
32138;SDS011;18644;48.700;9.210;2023-05-23T04:47:16;33.90;;;20.60;;
32138;SDS011;18644;48.700;9.210;2023-05-23T04:49:44;30.08;;;21.25;;
32138;SDS011;18644;48.700;9.210;2023-05-23T04:52:11;33.17;;;21.02;;
32138;SDS011;18644;48.700;9.210;2023-05-23T04:54:40;30.38;;;22.45;;
32138;SDS011;18644;48.700;9.210;2023-05-23T04:57:09;27.20;;;19.17;;
32138;SDS011;18644;48.700;9.210;2023-05-23T04:59:36;27.20;;;19.23;;
32138;SDS011;18644;48.700;9.210;2023-05-23T05:02:03;43.08;;;20.45;;
32138;SDS011;18644;48.700;9.210;2023-05-23T05:04:30;29.67;;;20.35;;
32138;SDS011;18644;48.700;9.210;2023-05-23T05:06:57;30.13;;;20.13;;
32138;SDS011;18644;48.700;9.210;2023-05-23T05:09:24;27.90;;;20.20;;
32138;SDS011;18644;48.700;9.210;2023-05-23T05:11:52;29.55;;;21.10;;
32138;SDS011;18644;48.700;9.210;2023-05-23T05:14:20;30.00;;;19.27;;
32138;SDS011;18644;48.700;9.210;2023-05-23T05:16:46;24.25;;;17.13;;
32138;SDS011;18644;48.700;9.210;2023-05-23T05:19:14;23.83;;;16.90;;
32138;SDS011;18644;48.700;9.210;2023-05-23T05:21:41;24.40;;;18.25;;
32138;SDS011;18644;48.700;9.210;2023-05-23T05:24:08;28.02;;;19.48;;
32138;SDS011;18644;48.700;9.210;2023-05-23T05:26:35;26.38;;;18.00;;
32138;SDS011;18644;48.700;9.210;2023-05-23T05:29:03;25.42;;;18.13;;
32138;SDS011;18644;48.700;9.210;2023-05-23T05:31:30;30.35;;;20.52;;
32138;SDS011;18644;48.700;9.210;2023-05-23T05:33:57;25.95;;;18.88;;
32138;SDS011;18644;48.700;9.210;2023-05-23T05:36:24;30.08;;;21.00;;
32138;SDS011;18644;48.700;9.210;2023-05-23T05:38:51;27.02;;;20.65;;
32138;SDS011;18644;48.700;9.210;2023-05-23T05:41:18;24.42;;;19.27;;
32138;SDS011;18644;48.700;9.210;2023-05-23T05:43:46;29.02;;;19.48;;
32138;SDS011;18644;48.700;9.210;2023-05-23T05:46:14;28.55;;;19.15;;
32138;SDS011;18644;48.700;9.210;2023-05-23T05:48:41;32.38;;;19.23;;
32138;SDS011;18644;48.700;9.210;2023-05-23T05:51:08;25.80;;;18.95;;
32138;SDS011;18644;48.700;9.210;2023-05-23T05:53:35;25.17;;;18.52;;
32138;SDS011;18644;48.700;9.210;2023-05-23T05:56:02;23.88;;;17.98;;
32138;SDS011;18644;48.700;9.210;2023-05-23T05:58:30;24.02;;;17.90;;
32138;SDS011;18644;48.700;9.210;2023-05-23T06:00:56;26.38;;;19.35;;
32138;SDS011;18644;48.700;9.210;2023-05-23T06:03:25;27.58;;;18.48;;
32138;SDS011;18644;48.700;9.210;2023-05-23T06:05:52;26.15;;;18.65;;
32138;SDS011;18644;48.700;9.210;2023-05-23T06:08:19;24.70;;;19.23;;
32138;SDS011;18644;48.700;9.210;2023-05-23T06:10:46;23.63;;;18.73;;
32138;SDS011;18644;48.700;9.210;2023-05-23T06:13:13;24.90;;;18.50;;
32138;SDS011;18644;48.700;9.210;2023-05-23T06:15:40;28.02;;;20.17;;
32138;SDS011;18644;48.700;9.210;2023-05-23T06:18:06;28.85;;;20.42;;
32138;SDS011;18644;48.700;9.210;2023-05-23T06:20:35;29.90;;;20.35;;
32138;SDS011;18644;48.700;9.210;2023-05-23T06:23:02;24.10;;;19.10;;
32138;SDS011;18644;48.700;9.210;2023-05-23T06:25:29;24.95;;;19.58;;
32138;SDS011;18644;48.700;9.210;2023-05-23T06:27:56;26.50;;;19.02;;
32138;SDS011;18644;48.700;9.210;2023-05-23T06:30:23;26.95;;;17.80;;
32138;SDS011;18644;48.700;9.210;2023-05-23T06:32:50;24.33;;;17.73;;
32138;SDS011;18644;48.700;9.210;2023-05-23T06:35:17;22.98;;;17.90;;
32138;SDS011;18644;48.700;9.210;2023-05-23T06:37:45;24.70;;;19.42;;
32138;SDS011;18644;48.700;9.210;2023-05-23T06:40:12;23.25;;;17.63;;
32138;SDS011;18644;48.700;9.210;2023-05-23T06:42:39;35.10;;;18.58;;
32138;SDS011;18644;48.700;9.210;2023-05-23T06:45:06;24.40;;;17.73;;
32138;SDS011;18644;48.700;9.210;2023-05-23T06:47:34;26.25;;;19.58;;
32138;SDS011;18644;48.700;9.210;2023-05-23T06:50:01;24.77;;;19.17;;
32138;SDS011;18644;48.700;9.210;2023-05-23T06:52:29;23.88;;;18.23;;
32138;SDS011;18644;48.700;9.210;2023-05-23T06:54:57;26.85;;;18.95;;
32138;SDS011;18644;48.700;9.210;2023-05-23T06:57:24;22.70;;;18.08;;
32138;SDS011;18644;48.700;9.210;2023-05-23T06:59:51;24.60;;;19.00;;
32138;SDS011;18644;48.700;9.210;2023-05-23T07:02:17;21.23;;;17.90;;
32138;SDS011;18644;48.700;9.210;2023-05-23T07:04:44;23.65;;;19.05;;
32138;SDS011;18644;48.700;9.210;2023-05-23T07:07:11;24.80;;;19.83;;
32138;SDS011;18644;48.700;9.210;2023-05-23T07:09:38;25.58;;;19.73;;
32138;SDS011;18644;48.700;9.210;2023-05-23T07:12:07;27.55;;;20.40;;
32138;SDS011;18644;48.700;9.210;2023-05-23T07:14:34;21.08;;;16.48;;
32138;SDS011;18644;48.700;9.210;2023-05-23T07:17:02;27.27;;;18.75;;
32138;SDS011;18644;48.700;9.210;2023-05-23T07:19:31;25.88;;;17.95;;
32138;SDS011;18644;48.700;9.210;2023-05-23T07:21:58;27.92;;;20.20;;
32138;SDS011;18644;48.700;9.210;2023-05-23T07:24:25;24.50;;;19.35;;
32138;SDS011;18644;48.700;9.210;2023-05-23T07:26:52;19.25;;;16.48;;
32138;SDS011;18644;48.700;9.210;2023-05-23T07:29:20;22.55;;;18.02;;
32138;SDS011;18644;48.700;9.210;2023-05-23T07:31:47;21.13;;;17.35;;
32138;SDS011;18644;48.700;9.210;2023-05-23T07:34:14;22.63;;;17.13;;
32138;SDS011;18644;48.700;9.210;2023-05-23T07:36:41;22.92;;;17.33;;
32138;SDS011;18644;48.700;9.210;2023-05-23T07:39:08;19.50;;;16.13;;
32138;SDS011;18644;48.700;9.210;2023-05-23T07:41:35;21.13;;;17.10;;
32138;SDS011;18644;48.700;9.210;2023-05-23T07:44:01;19.17;;;15.55;;
32138;SDS011;18644;48.700;9.210;2023-05-23T07:46:30;17.85;;;15.10;;
32138;SDS011;18644;48.700;9.210;2023-05-23T07:48:56;18.23;;;15.35;;
32138;SDS011;18644;48.700;9.210;2023-05-23T07:51:23;22.05;;;16.88;;
32138;SDS011;18644;48.700;9.210;2023-05-23T07:53:51;18.80;;;15.75;;
32138;SDS011;18644;48.700;9.210;2023-05-23T07:56:17;19.98;;;16.35;;
32138;SDS011;18644;48.700;9.210;2023-05-23T07:58:44;26.95;;;17.55;;
32138;SDS011;18644;48.700;9.210;2023-05-23T08:01:11;25.92;;;18.67;;
32138;SDS011;18644;48.700;9.210;2023-05-23T08:03:39;20.17;;;17.55;;
32138;SDS011;18644;48.700;9.210;2023-05-23T08:06:06;21.02;;;17.67;;
32138;SDS011;18644;48.700;9.210;2023-05-23T08:08:34;20.83;;;17.42;;
32138;SDS011;18644;48.700;9.210;2023-05-23T08:11:01;23.20;;;18.15;;
32138;SDS011;18644;48.700;9.210;2023-05-23T08:13:28;21.98;;;16.77;;
32138;SDS011;18644;48.700;9.210;2023-05-23T08:15:55;19.55;;;16.83;;
32138;SDS011;18644;48.700;9.210;2023-05-23T08:18:22;20.20;;;17.08;;
32138;SDS011;18644;48.700;9.210;2023-05-23T08:20:50;24.08;;;17.85;;
32138;SDS011;18644;48.700;9.210;2023-05-23T08:23:19;20.20;;;16.38;;
32138;SDS011;18644;48.700;9.210;2023-05-23T08:25:45;21.02;;;16.38;;
32138;SDS011;18644;48.700;9.210;2023-05-23T08:28:12;20.98;;;16.27;;
32138;SDS011;18644;48.700;9.210;2023-05-23T08:30:39;19.00;;;15.18;;
32138;SDS011;18644;48.700;9.210;2023-05-23T08:33:06;17.35;;;14.30;;
32138;SDS011;18644;48.700;9.210;2023-05-23T08:35:33;20.58;;;15.93;;
32138;SDS011;18644;48.700;9.210;2023-05-23T08:38:03;20.33;;;16.05;;
32138;SDS011;18644;48.700;9.210;2023-05-23T08:40:31;17.27;;;14.68;;
32138;SDS011;18644;48.700;9.210;2023-05-23T08:42:59;15.48;;;12.98;;
32138;SDS011;18644;48.700;9.210;2023-05-23T08:45:27;15.25;;;13.52;;
32138;SDS011;18644;48.700;9.210;2023-05-23T08:47:54;17.98;;;12.98;;
32138;SDS011;18644;48.700;9.210;2023-05-23T08:50:22;14.05;;;12.40;;
32138;SDS011;18644;48.700;9.210;2023-05-23T08:52:54;16.10;;;12.82;;
32138;SDS011;18644;48.700;9.210;2023-05-23T08:55:24;16.70;;;13.52;;
32138;SDS011;18644;48.700;9.210;2023-05-23T08:57:52;13.93;;;11.43;;
32138;SDS011;18644;48.700;9.210;2023-05-23T09:00:20;14.80;;;12.15;;
32138;SDS011;18644;48.700;9.210;2023-05-23T09:02:47;12.30;;;11.02;;
32138;SDS011;18644;48.700;9.210;2023-05-23T09:05:15;14.52;;;12.15;;
32138;SDS011;18644;48.700;9.210;2023-05-23T09:07:43;18.48;;;11.88;;
32138;SDS011;18644;48.700;9.210;2023-05-23T09:10:12;12.50;;;10.43;;
32138;SDS011;18644;48.700;9.210;2023-05-23T09:12:42;14.70;;;10.65;;
32138;SDS011;18644;48.700;9.210;2023-05-23T09:15:09;15.45;;;11.27;;
32138;SDS011;18644;48.700;9.210;2023-05-23T09:17:37;12.75;;;11.00;;
32138;SDS011;18644;48.700;9.210;2023-05-23T09:20:09;13.10;;;10.70;;
32138;SDS011;18644;48.700;9.210;2023-05-23T09:22:38;16.50;;;10.45;;
32138;SDS011;18644;48.700;9.210;2023-05-23T09:25:05;12.18;;;10.35;;
32138;SDS011;18644;48.700;9.210;2023-05-23T09:27:33;12.40;;;10.43;;
32138;SDS011;18644;48.700;9.210;2023-05-23T09:30:06;15.93;;;12.27;;
32138;SDS011;18644;48.700;9.210;2023-05-23T09:32:34;18.75;;;13.20;;
32138;SDS011;18644;48.700;9.210;2023-05-23T09:35:01;19.05;;;12.73;;
32138;SDS011;18644;48.700;9.210;2023-05-23T09:37:30;14.43;;;12.63;;
32138;SDS011;18644;48.700;9.210;2023-05-23T09:39:59;16.92;;;12.55;;
32138;SDS011;18644;48.700;9.210;2023-05-23T09:42:31;13.52;;;11.48;;
32138;SDS011;18644;48.700;9.210;2023-05-23T09:44:59;12.93;;;11.20;;
32138;SDS011;18644;48.700;9.210;2023-05-23T09:47:27;20.00;;;11.45;;
32138;SDS011;18644;48.700;9.210;2023-05-23T09:49:54;13.77;;;10.48;;
32138;SDS011;18644;48.700;9.210;2023-05-23T09:52:22;11.55;;;9.70;;
32138;SDS011;18644;48.700;9.210;2023-05-23T09:54:49;11.23;;;9.40;;
32138;SDS011;18644;48.700;9.210;2023-05-23T09:57:16;12.25;;;10.20;;
32138;SDS011;18644;48.700;9.210;2023-05-23T09:59:50;11.65;;;10.40;;
32138;SDS011;18644;48.700;9.210;2023-05-23T10:02:25;10.18;;;9.07;;
32138;SDS011;18644;48.700;9.210;2023-05-23T10:05:27;9.75;;;8.45;;
32138;SDS011;18644;48.700;9.210;2023-05-23T10:07:58;10.63;;;7.90;;
32138;SDS011;18644;48.700;9.210;2023-05-23T10:10:29;9.80;;;8.80;;
32138;SDS011;18644;48.700;9.210;2023-05-23T10:12:58;11.13;;;8.48;;
32138;SDS011;18644;48.700;9.210;2023-05-23T10:15:30;9.07;;;7.80;;
32138;SDS011;18644;48.700;9.210;2023-05-23T10:18:06;10.63;;;8.32;;
32138;SDS011;18644;48.700;9.210;2023-05-23T10:20:38;8.85;;;7.60;;
32138;SDS011;18644;48.700;9.210;2023-05-23T10:23:09;9.38;;;7.50;;
32138;SDS011;18644;48.700;9.210;2023-05-23T10:25:37;8.32;;;7.38;;
32138;SDS011;18644;48.700;9.210;2023-05-23T10:28:06;9.80;;;8.40;;
32138;SDS011;18644;48.700;9.210;2023-05-23T10:30:33;9.38;;;7.68;;
32138;SDS011;18644;48.700;9.210;2023-05-23T10:33:01;9.88;;;7.93;;
32138;SDS011;18644;48.700;9.210;2023-05-23T10:35:36;9.25;;;7.60;;
32138;SDS011;18644;48.700;9.210;2023-05-23T10:38:11;8.68;;;7.35;;
32138;SDS011;18644;48.700;9.210;2023-05-23T10:40:55;7.70;;;6.70;;
32138;SDS011;18644;48.700;9.210;2023-05-23T10:43:36;11.82;;;7.10;;
32138;SDS011;18644;48.700;9.210;2023-05-23T10:46:12;7.07;;;6.38;;
32138;SDS011;18644;48.700;9.210;2023-05-23T10:48:40;7.50;;;6.70;;
32138;SDS011;18644;48.700;9.210;2023-05-23T10:51:10;8.38;;;6.57;;
32138;SDS011;18644;48.700;9.210;2023-05-23T10:53:38;8.05;;;6.55;;
32138;SDS011;18644;48.700;9.210;2023-05-23T10:56:08;7.30;;;6.55;;
32138;SDS011;18644;48.700;9.210;2023-05-23T10:58:37;6.93;;;6.18;;
32138;SDS011;18644;48.700;9.210;2023-05-23T11:01:05;6.05;;;5.45;;
32138;SDS011;18644;48.700;9.210;2023-05-23T11:03:34;6.25;;;5.35;;
32138;SDS011;18644;48.700;9.210;2023-05-23T11:06:02;6.85;;;6.15;;
32138;SDS011;18644;48.700;9.210;2023-05-23T11:08:38;6.93;;;5.97;;
32138;SDS011;18644;48.700;9.210;2023-05-23T11:11:09;6.40;;;5.78;;
32138;SDS011;18644;48.700;9.210;2023-05-23T11:16:28;6.00;;;5.20;;
32138;SDS011;18644;48.700;9.210;2023-05-23T11:21:52;5.80;;;4.78;;
32138;SDS011;18644;48.700;9.210;2023-05-23T11:24:27;8.02;;;5.63;;
32138;SDS011;18644;48.700;9.210;2023-05-23T11:27:16;6.57;;;5.88;;
32138;SDS011;18644;48.700;9.210;2023-05-23T11:29:44;6.78;;;5.90;;
32138;SDS011;18644;48.700;9.210;2023-05-23T11:32:22;9.55;;;6.20;;
32138;SDS011;18644;48.700;9.210;2023-05-23T11:34:50;6.30;;;5.13;;
32138;SDS011;18644;48.700;9.210;2023-05-23T11:37:17;5.82;;;5.22;;
32138;SDS011;18644;48.700;9.210;2023-05-23T11:39:46;5.82;;;5.20;;
32138;SDS011;18644;48.700;9.210;2023-05-23T11:42:12;5.50;;;4.93;;
32138;SDS011;18644;48.700;9.210;2023-05-23T11:44:39;8.65;;;5.70;;
32138;SDS011;18644;48.700;9.210;2023-05-23T11:47:10;5.27;;;4.53;;
32138;SDS011;18644;48.700;9.210;2023-05-23T11:49:37;6.85;;;4.78;;
32138;SDS011;18644;48.700;9.210;2023-05-23T11:52:05;7.38;;;5.05;;
32138;SDS011;18644;48.700;9.210;2023-05-23T11:54:32;7.00;;;5.40;;
32138;SDS011;18644;48.700;9.210;2023-05-23T11:57:00;5.63;;;4.78;;
32138;SDS011;18644;48.700;9.210;2023-05-23T11:59:29;6.55;;;4.78;;
32138;SDS011;18644;48.700;9.210;2023-05-23T12:01:56;6.43;;;5.15;;
32138;SDS011;18644;48.700;9.210;2023-05-23T12:04:23;7.72;;;4.60;;
32138;SDS011;18644;48.700;9.210;2023-05-23T12:06:51;4.80;;;4.38;;
32138;SDS011;18644;48.700;9.210;2023-05-23T12:09:18;5.65;;;5.10;;
32138;SDS011;18644;48.700;9.210;2023-05-23T12:11:47;6.97;;;5.57;;
32138;SDS011;18644;48.700;9.210;2023-05-23T12:14:16;5.75;;;5.25;;
32138;SDS011;18644;48.700;9.210;2023-05-23T12:16:44;5.97;;;5.15;;
32138;SDS011;18644;48.700;9.210;2023-05-23T12:19:11;5.80;;;5.25;;
32138;SDS011;18644;48.700;9.210;2023-05-23T12:21:39;6.10;;;5.50;;
32138;SDS011;18644;48.700;9.210;2023-05-23T12:24:12;5.97;;;5.38;;
32138;SDS011;18644;48.700;9.210;2023-05-23T12:26:45;5.07;;;4.53;;
32138;SDS011;18644;48.700;9.210;2023-05-23T12:29:18;5.68;;;5.07;;
32138;SDS011;18644;48.700;9.210;2023-05-23T12:31:47;5.88;;;5.28;;
32138;SDS011;18644;48.700;9.210;2023-05-23T12:34:15;5.53;;;5.03;;
32138;SDS011;18644;48.700;9.210;2023-05-23T12:36:42;5.68;;;5.00;;
32138;SDS011;18644;48.700;9.210;2023-05-23T12:39:09;5.18;;;4.65;;
32138;SDS011;18644;48.700;9.210;2023-05-23T12:41:37;4.55;;;4.15;;
32138;SDS011;18644;48.700;9.210;2023-05-23T12:44:08;5.38;;;4.75;;
32138;SDS011;18644;48.700;9.210;2023-05-23T12:46:36;4.82;;;4.35;;
32138;SDS011;18644;48.700;9.210;2023-05-23T12:49:03;5.85;;;4.90;;
32138;SDS011;18644;48.700;9.210;2023-05-23T12:51:31;4.30;;;3.90;;
32138;SDS011;18644;48.700;9.210;2023-05-23T12:53:57;3.63;;;3.33;;
32138;SDS011;18644;48.700;9.210;2023-05-23T12:56:25;6.10;;;3.95;;
32138;SDS011;18644;48.700;9.210;2023-05-23T12:58:51;4.20;;;3.80;;
32138;SDS011;18644;48.700;9.210;2023-05-23T13:01:18;4.85;;;3.67;;
32138;SDS011;18644;48.700;9.210;2023-05-23T13:03:47;3.97;;;3.60;;
32138;SDS011;18644;48.700;9.210;2023-05-23T13:06:14;4.38;;;3.92;;
32138;SDS011;18644;48.700;9.210;2023-05-23T13:08:41;3.65;;;3.35;;
32138;SDS011;18644;48.700;9.210;2023-05-23T13:11:08;3.58;;;3.28;;
32138;SDS011;18644;48.700;9.210;2023-05-23T13:13:35;3.70;;;3.40;;
32138;SDS011;18644;48.700;9.210;2023-05-23T13:16:02;4.25;;;3.28;;
32138;SDS011;18644;48.700;9.210;2023-05-23T13:18:29;3.53;;;3.22;;
32138;SDS011;18644;48.700;9.210;2023-05-23T13:20:57;3.92;;;3.60;;
32138;SDS011;18644;48.700;9.210;2023-05-23T13:23:24;4.20;;;3.67;;
32138;SDS011;18644;48.700;9.210;2023-05-23T13:25:51;3.42;;;3.10;;
32138;SDS011;18644;48.700;9.210;2023-05-23T13:28:18;3.60;;;3.30;;
32138;SDS011;18644;48.700;9.210;2023-05-23T13:30:45;5.40;;;3.20;;
32138;SDS011;18644;48.700;9.210;2023-05-23T13:33:12;3.67;;;3.38;;
32138;SDS011;18644;48.700;9.210;2023-05-23T13:35:39;4.35;;;3.40;;
32138;SDS011;18644;48.700;9.210;2023-05-23T13:38:07;3.63;;;3.28;;
32138;SDS011;18644;48.700;9.210;2023-05-23T13:40:34;3.58;;;3.28;;
32138;SDS011;18644;48.700;9.210;2023-05-23T13:43:01;5.05;;;2.72;;
32138;SDS011;18644;48.700;9.210;2023-05-23T13:45:28;2.90;;;2.67;;
32138;SDS011;18644;48.700;9.210;2023-05-23T13:47:55;3.47;;;2.90;;
32138;SDS011;18644;48.700;9.210;2023-05-23T13:50:22;2.72;;;2.53;;
32138;SDS011;18644;48.700;9.210;2023-05-23T13:52:49;2.75;;;2.42;;
32138;SDS011;18644;48.700;9.210;2023-05-23T13:55:17;2.85;;;2.60;;
32138;SDS011;18644;48.700;9.210;2023-05-23T13:57:45;2.75;;;2.55;;
32138;SDS011;18644;48.700;9.210;2023-05-23T14:00:12;2.97;;;2.50;;
32138;SDS011;18644;48.700;9.210;2023-05-23T14:02:40;2.80;;;2.60;;
32138;SDS011;18644;48.700;9.210;2023-05-23T14:05:07;2.88;;;2.58;;
32138;SDS011;18644;48.700;9.210;2023-05-23T14:07:34;4.15;;;2.35;;
32138;SDS011;18644;48.700;9.210;2023-05-23T14:10:02;3.35;;;2.20;;
32138;SDS011;18644;48.700;9.210;2023-05-23T14:12:32;3.88;;;2.30;;
32138;SDS011;18644;48.700;9.210;2023-05-23T14:14:59;2.00;;;1.83;;
32138;SDS011;18644;48.700;9.210;2023-05-23T14:17:26;3.17;;;2.33;;
32138;SDS011;18644;48.700;9.210;2023-05-23T14:19:53;2.38;;;2.17;;
32138;SDS011;18644;48.700;9.210;2023-05-23T14:22:20;2.58;;;2.38;;
32138;SDS011;18644;48.700;9.210;2023-05-23T14:24:47;2.75;;;2.22;;
32138;SDS011;18644;48.700;9.210;2023-05-23T14:27:14;3.53;;;2.25;;
32138;SDS011;18644;48.700;9.210;2023-05-23T14:29:43;3.97;;;2.28;;
32138;SDS011;18644;48.700;9.210;2023-05-23T14:32:10;2.80;;;2.30;;
32138;SDS011;18644;48.700;9.210;2023-05-23T14:34:38;2.58;;;2.38;;
32138;SDS011;18644;48.700;9.210;2023-05-23T14:37:05;2.20;;;2.00;;
32138;SDS011;18644;48.700;9.210;2023-05-23T14:39:31;2.58;;;2.38;;
32138;SDS011;18644;48.700;9.210;2023-05-23T14:41:59;2.70;;;2.50;;
32138;SDS011;18644;48.700;9.210;2023-05-23T14:44:27;2.67;;;2.47;;